createdAt,value
2017-10-14T00:02:19.035Z,10.20
2017-10-14T00:04:46.602Z,10.57
2017-10-14T00:07:14.929Z,9.10
2017-10-14T00:09:42.862Z,9.30
2017-10-14T00:12:10.400Z,9.97
2017-10-14T00:14:38.722Z,10.20
2017-10-14T00:17:06.709Z,9.27
2017-10-14T00:19:34.258Z,9.40
2017-10-14T00:22:01.851Z,8.70
2017-10-14T00:24:29.893Z,10.20
2017-10-14T00:26:57.472Z,9.07
2017-10-14T00:29:25.013Z,8.83
2017-10-14T00:31:52.868Z,10.30
2017-10-14T00:34:20.434Z,9.30
2017-10-14T00:36:48.057Z,8.90
2017-10-14T00:39:15.661Z,10.13
2017-10-14T00:41:43.199Z,10.00
2017-10-14T00:44:10.747Z,9.07
2017-10-14T00:46:38.356Z,8.77
2017-10-14T00:49:05.925Z,8.80
2017-10-14T00:51:33.475Z,9.60
2017-10-14T00:54:01.327Z,8.90
2017-10-14T00:56:28.881Z,9.97
2017-10-14T00:58:56.423Z,8.57
2017-10-14T01:01:24.416Z,8.67
2017-10-14T01:03:51.953Z,8.00
2017-10-14T01:06:19.497Z,9.80
2017-10-14T01:08:47.091Z,8.30
2017-10-14T01:11:14.638Z,9.57
2017-10-14T01:13:42.197Z,8.90
2017-10-14T01:16:10.054Z,8.17
2017-10-14T01:18:37.599Z,8.40
2017-10-14T01:21:05.157Z,8.20
2017-10-14T01:23:33.170Z,8.50
2017-10-14T01:26:01.521Z,8.60
2017-10-14T01:28:29.071Z,8.50
2017-10-14T01:30:56.974Z,9.20
2017-10-14T01:33:24.535Z,8.40
2017-10-14T01:35:52.126Z,8.03
2017-10-14T01:38:20.492Z,8.53
2017-10-14T01:40:48.071Z,8.63
2017-10-14T01:43:16.382Z,8.50
2017-10-14T01:45:44.038Z,8.83
2017-10-14T01:48:11.706Z,8.87
2017-10-14T01:50:39.265Z,7.10
2017-10-14T01:53:07.367Z,8.43
2017-10-14T01:55:35.666Z,7.80
2017-10-14T01:58:03.216Z,7.70
2017-10-14T02:00:30.863Z,8.07
2017-10-14T02:02:58.400Z,8.60
2017-10-14T02:05:25.966Z,8.97
2017-10-14T02:07:53.598Z,7.10
2017-10-14T02:10:21.138Z,8.57
2017-10-14T02:12:48.698Z,7.93
2017-10-14T02:15:17.087Z,9.10
2017-10-14T02:17:45.401Z,8.00
2017-10-14T02:20:12.962Z,8.87
2017-10-14T02:22:40.558Z,8.07
2017-10-14T02:25:08.115Z,8.50
2017-10-14T02:27:35.666Z,8.20
2017-10-14T02:30:03.271Z,7.97
2017-10-14T02:32:30.819Z,8.33
2017-10-14T02:34:59.142Z,8.97
2017-10-14T02:37:26.757Z,9.00
2017-10-14T02:39:55.077Z,7.53
2017-10-14T02:42:22.621Z,8.63
2017-10-14T02:44:50.225Z,8.40
2017-10-14T02:47:17.805Z,8.60
2017-10-14T02:49:46.154Z,9.30
2017-10-14T02:52:13.756Z,9.27
2017-10-14T02:54:41.332Z,8.30
2017-10-14T02:57:08.891Z,7.63
2017-10-14T02:59:36.750Z,8.73
2017-10-14T03:02:04.288Z,9.63
2017-10-14T03:04:32.602Z,8.80
2017-10-14T03:07:00.482Z,8.60
2017-10-14T03:09:28.025Z,9.40
2017-10-14T03:11:55.590Z,9.37
2017-10-14T03:14:23.442Z,9.07
2017-10-14T03:16:50.985Z,8.33
2017-10-14T03:19:19.328Z,8.30
2017-10-14T03:21:47.188Z,8.23
2017-10-14T03:24:14.756Z,8.37
2017-10-14T03:26:42.316Z,8.20
2017-10-14T03:29:10.262Z,8.40
2017-10-14T03:31:37.800Z,6.70
2017-10-14T03:34:05.378Z,8.30
2017-10-14T03:36:33.253Z,8.70
2017-10-14T03:39:00.795Z,8.63
2017-10-14T03:41:28.358Z,8.60
2017-10-14T03:43:55.969Z,7.63
2017-10-14T03:46:23.510Z,8.50
2017-10-14T03:48:51.069Z,9.27
2017-10-14T03:51:18.926Z,9.77
2017-10-14T03:53:46.490Z,8.30
2017-10-14T03:56:14.033Z,9.17
2017-10-14T03:58:42.014Z,8.20
2017-10-14T04:01:09.581Z,8.93
2017-10-14T04:03:37.152Z,8.83
2017-10-14T04:06:04.742Z,8.63
2017-10-14T04:08:32.296Z,8.53
2017-10-14T04:10:59.831Z,9.10
2017-10-14T04:13:27.433Z,7.90
2017-10-14T04:15:54.997Z,8.07
2017-10-14T04:18:22.589Z,8.70
2017-10-14T04:20:50.522Z,7.63
2017-10-14T04:23:18.086Z,8.37
2017-10-14T04:25:45.616Z,8.33
2017-10-14T04:28:13.221Z,7.70
2017-10-14T04:30:40.760Z,7.43
2017-10-14T04:33:08.294Z,8.53
2017-10-14T04:35:36.666Z,8.30
2017-10-14T04:38:04.204Z,8.10
2017-10-14T04:40:31.749Z,7.27
2017-10-14T04:42:59.384Z,7.00
2017-10-14T04:45:26.958Z,7.43
2017-10-14T04:47:54.506Z,7.77
2017-10-14T04:50:22.486Z,8.37
2017-10-14T04:52:50.051Z,8.40
2017-10-14T04:55:17.610Z,8.63
2017-10-14T04:57:45.469Z,7.43
2017-10-14T05:00:13.030Z,7.47
2017-10-14T05:02:40.590Z,8.10
2017-10-14T05:05:08.457Z,8.47
2017-10-14T05:07:36.007Z,8.80
2017-10-14T05:10:03.554Z,9.20
2017-10-14T05:12:31.170Z,7.70
2017-10-14T05:14:58.712Z,7.30
2017-10-14T05:17:26.261Z,8.73
2017-10-14T05:19:53.868Z,7.90
2017-10-14T05:22:22.177Z,7.70
2017-10-14T05:24:49.731Z,7.87
2017-10-14T05:27:17.297Z,8.07
2017-10-14T05:29:44.866Z,7.90
2017-10-14T05:32:12.450Z,7.90
2017-10-14T05:34:40.056Z,8.47
2017-10-14T05:37:07.602Z,8.13
2017-10-14T05:39:35.223Z,10.73
2017-10-14T05:42:03.258Z,8.80
2017-10-14T05:44:30.828Z,9.33
2017-10-14T05:46:58.393Z,8.10
2017-10-14T05:49:25.985Z,8.47
2017-10-14T05:51:53.535Z,7.90
2017-10-14T05:54:21.095Z,8.20
2017-10-14T05:56:48.706Z,7.30
2017-10-14T05:59:16.260Z,8.83
2017-10-14T06:01:43.809Z,7.70
2017-10-14T06:04:11.406Z,8.00
2017-10-14T06:06:38.966Z,8.13
2017-10-14T06:09:06.514Z,8.50
2017-10-14T06:11:34.151Z,7.30
2017-10-14T06:14:01.699Z,8.53
2017-10-14T06:16:30.024Z,6.53
2017-10-14T06:18:57.648Z,9.13
2017-10-14T06:21:25.195Z,8.00
2017-10-14T06:23:53.498Z,9.20
2017-10-14T06:26:21.114Z,8.20
2017-10-14T06:28:48.677Z,7.20
2017-10-14T06:31:16.274Z,7.30
2017-10-14T06:33:44.305Z,7.80
2017-10-14T06:36:11.864Z,8.90
2017-10-14T06:38:39.470Z,7.77
2017-10-14T06:41:07.058Z,8.07
2017-10-14T06:43:34.598Z,8.20
2017-10-14T06:46:02.134Z,7.83
2017-10-14T06:48:30.253Z,9.00
2017-10-14T06:50:57.812Z,7.60
2017-10-14T06:53:25.352Z,8.63
2017-10-14T06:55:52.953Z,8.43
2017-10-14T06:58:20.514Z,9.27
2017-10-14T07:00:48.086Z,9.63
2017-10-14T07:03:15.939Z,8.03
2017-10-14T07:05:43.492Z,9.50
2017-10-14T07:08:11.039Z,8.57
2017-10-14T07:10:38.643Z,8.20
2017-10-14T07:13:06.950Z,7.77
2017-10-14T07:15:34.492Z,8.53
2017-10-14T07:18:02.080Z,8.00
2017-10-14T07:20:29.616Z,8.10
2017-10-14T07:22:57.186Z,8.50
2017-10-14T07:25:24.781Z,7.07
2017-10-14T07:27:52.350Z,7.70
2017-10-14T07:30:19.964Z,8.37
2017-10-14T07:32:47.517Z,8.37
2017-10-14T07:35:15.079Z,7.07
2017-10-14T07:37:42.656Z,8.77
2017-10-14T07:40:10.193Z,8.30
2017-10-14T07:42:37.809Z,7.40
2017-10-14T07:45:05.400Z,7.90
2017-10-14T07:47:32.969Z,7.13
2017-10-14T07:50:00.567Z,7.13
2017-10-14T07:52:28.124Z,9.03
2017-10-14T07:54:55.760Z,8.50
2017-10-14T07:57:23.315Z,8.27
2017-10-14T07:59:50.875Z,8.00
2017-10-14T08:02:18.507Z,7.87
2017-10-14T08:04:46.826Z,8.20
2017-10-14T08:07:14.439Z,7.70
2017-10-14T08:09:42.002Z,7.60
2017-10-14T08:12:09.581Z,8.40
2017-10-14T08:14:37.217Z,9.27
2017-10-14T08:17:05.529Z,9.50
2017-10-14T08:19:33.129Z,7.83
2017-10-14T08:22:00.700Z,8.77
2017-10-14T08:24:28.266Z,8.00
2017-10-14T08:26:56.658Z,9.00
2017-10-14T08:29:24.222Z,10.50
2017-10-14T08:31:52.849Z,10.80
2017-10-14T08:34:20.409Z,9.30
2017-10-14T08:36:47.982Z,10.50
2017-10-14T08:39:15.577Z,9.20
2017-10-14T08:41:43.138Z,11.27
2017-10-14T08:44:11.533Z,10.90
2017-10-14T08:46:39.095Z,10.97
2017-10-14T08:49:06.664Z,11.17
2017-10-14T08:51:34.270Z,10.73
2017-10-14T08:54:01.846Z,11.30
2017-10-14T08:56:29.772Z,10.70
2017-10-14T08:58:57.338Z,12.50
2017-10-14T09:01:24.892Z,10.77
2017-10-14T09:03:52.501Z,12.20
2017-10-14T09:06:20.069Z,12.57
2017-10-14T09:08:47.772Z,11.87
2017-10-14T09:11:15.337Z,10.10
2017-10-14T09:13:42.901Z,11.57
2017-10-14T09:16:10.515Z,12.00
2017-10-14T09:18:38.084Z,10.70
2017-10-14T09:21:05.689Z,11.00
2017-10-14T09:23:33.303Z,12.17
2017-10-14T09:26:00.851Z,13.60
2017-10-14T09:28:29.233Z,12.73
2017-10-14T09:30:56.792Z,13.17
2017-10-14T09:33:25.166Z,14.50
2017-10-14T09:38:26.752Z,14.67
2017-10-14T09:40:54.323Z,13.80
2017-10-14T09:43:21.933Z,15.60
2017-10-14T09:45:49.594Z,15.13
2017-10-14T09:48:17.163Z,8.90
2017-10-14T09:50:44.754Z,14.00
2017-10-14T09:53:12.350Z,15.93
2017-10-14T09:55:39.930Z,15.00
2017-10-14T09:58:07.494Z,15.03
2017-10-14T10:00:35.078Z,14.53
2017-10-14T10:03:03.464Z,14.57
2017-10-14T10:05:31.027Z,13.90
2017-10-14T10:07:59.344Z,15.10
2017-10-14T10:10:26.969Z,15.37
2017-10-14T10:12:55.597Z,10.80
2017-10-14T10:15:23.318Z,9.37
2017-10-14T10:17:50.913Z,10.10
2017-10-14T10:20:18.477Z,8.90
2017-10-14T10:22:46.069Z,8.70
2017-10-14T10:25:13.631Z,8.87
2017-10-14T10:27:41.231Z,8.50
2017-10-14T10:30:08.790Z,8.93
2017-10-14T10:32:36.369Z,8.57
2017-10-14T10:35:03.946Z,8.80
2017-10-14T10:37:31.517Z,9.50
2017-10-14T10:42:32.893Z,9.53
2017-10-14T10:45:00.509Z,8.77
2017-10-14T10:47:28.063Z,9.33
2017-10-14T10:49:55.641Z,8.50
2017-10-14T10:52:23.223Z,7.70
2017-10-14T10:54:50.778Z,7.50
2017-10-14T10:57:18.389Z,7.20
2017-10-14T10:59:45.940Z,6.37
2017-10-14T11:02:13.485Z,5.87
2017-10-14T11:04:41.062Z,5.67
2017-10-14T11:07:08.623Z,6.40
2017-10-14T11:09:36.220Z,5.60
2017-10-14T11:12:03.761Z,4.80
2017-10-14T11:14:31.352Z,5.60
2017-10-14T11:16:58.964Z,4.40
2017-10-14T11:19:26.530Z,5.73
2017-10-14T11:21:54.159Z,6.10
2017-10-14T11:24:21.961Z,6.07
2017-10-14T11:26:49.517Z,5.30
2017-10-14T11:29:17.109Z,5.23
2017-10-14T11:31:44.675Z,6.30
2017-10-14T11:34:12.290Z,5.63
2017-10-14T11:36:39.849Z,6.77
2017-10-14T11:39:07.487Z,7.67
2017-10-14T11:41:36.354Z,7.97
2017-10-14T11:44:03.931Z,8.73
2017-10-14T11:46:31.877Z,6.87
2017-10-14T11:48:59.499Z,8.00
2017-10-14T11:51:27.049Z,6.53
2017-10-14T11:53:54.662Z,4.77
2017-10-14T11:56:22.230Z,7.10
2017-10-14T11:58:49.837Z,6.70
2017-10-14T12:01:17.401Z,8.07
2017-10-14T12:03:44.993Z,7.00
2017-10-14T12:06:12.598Z,5.90
2017-10-14T12:08:40.908Z,6.20
2017-10-14T12:11:08.529Z,6.03
2017-10-14T12:13:36.838Z,6.53
2017-10-14T12:16:04.455Z,5.80
2017-10-14T12:18:32.855Z,5.70
2017-10-14T12:21:00.411Z,5.97
2017-10-14T12:23:28.803Z,4.70
2017-10-14T12:25:56.394Z,5.53
2017-10-14T12:28:23.953Z,5.10
2017-10-14T12:30:51.563Z,4.47
2017-10-14T12:33:19.126Z,4.60
2017-10-14T12:35:47.493Z,5.67
2017-10-14T12:38:15.081Z,5.53
2017-10-14T12:40:42.638Z,4.80
2017-10-14T12:43:10.226Z,4.63
2017-10-14T12:45:37.793Z,4.47
2017-10-14T12:48:05.859Z,4.00
2017-10-14T12:50:33.410Z,4.27
2017-10-14T12:53:01.019Z,4.67
2017-10-14T12:55:29.402Z,3.73
2017-10-14T12:57:56.961Z,3.67
2017-10-14T13:00:25.338Z,4.23
2017-10-14T13:02:52.963Z,5.97
2017-10-14T13:05:20.521Z,4.13
2017-10-14T13:07:48.102Z,4.07
2017-10-14T13:10:15.831Z,5.07
2017-10-14T13:12:43.713Z,4.10
2017-10-14T13:15:12.042Z,4.83
2017-10-14T13:17:40.421Z,4.00
2017-10-14T13:20:08.009Z,4.87
2017-10-14T13:22:35.580Z,4.30
2017-10-14T13:25:03.188Z,4.77
2017-10-14T13:27:30.732Z,4.07
2017-10-14T13:29:58.323Z,4.23
2017-10-14T13:32:25.913Z,3.70
2017-10-14T13:34:53.515Z,4.47
2017-10-14T13:37:21.122Z,3.90
2017-10-14T13:39:48.677Z,4.63
2017-10-14T13:42:16.228Z,5.00
2017-10-14T13:44:43.864Z,5.17
2017-10-14T13:47:12.194Z,4.60
2017-10-14T13:49:39.793Z,4.00
2017-10-14T13:52:07.355Z,4.00
2017-10-14T13:54:34.920Z,4.33
2017-10-14T13:57:03.286Z,5.30
2017-10-14T13:59:30.818Z,5.77
2017-10-14T14:01:58.445Z,4.33
2017-10-14T14:04:25.972Z,4.70
2017-10-14T14:06:53.526Z,6.00
2017-10-14T14:09:21.114Z,5.50
2017-10-14T14:11:49.414Z,5.63
2017-10-14T14:14:17.009Z,5.87
2017-10-14T14:16:44.545Z,4.90
2017-10-14T14:19:12.119Z,6.10
2017-10-14T14:21:39.770Z,5.30
2017-10-14T14:24:07.317Z,5.33
2017-10-14T14:26:35.253Z,4.80
2017-10-14T14:29:02.812Z,4.07
2017-10-14T14:31:31.245Z,5.63
2017-10-14T14:33:58.846Z,5.57
2017-10-14T14:36:26.409Z,4.43
2017-10-14T14:38:54.044Z,5.63
2017-10-14T14:41:21.592Z,4.77
2017-10-14T14:43:49.147Z,5.40
2017-10-14T14:46:16.753Z,4.60
2017-10-14T14:48:44.306Z,4.20
2017-10-14T14:51:12.968Z,3.93
2017-10-14T14:53:40.558Z,3.90
2017-10-14T14:56:08.089Z,4.17
2017-10-14T14:58:35.715Z,5.00
2017-10-14T15:01:03.282Z,4.97
2017-10-14T15:03:30.887Z,3.77
2017-10-14T15:05:59.206Z,4.17
2017-10-14T15:08:26.768Z,3.90
2017-10-14T15:10:54.352Z,4.00
2017-10-14T15:13:21.902Z,4.00
2017-10-14T15:15:49.546Z,4.00
2017-10-14T15:18:17.101Z,4.43
2017-10-14T15:20:44.639Z,4.27
2017-10-14T15:23:12.232Z,4.97
2017-10-14T15:25:39.770Z,4.63
2017-10-14T15:28:07.363Z,4.43
2017-10-14T15:30:34.926Z,6.60
2017-10-14T15:33:03.287Z,7.60
2017-10-14T15:35:30.892Z,9.10
2017-10-14T15:37:59.212Z,4.27
2017-10-14T15:40:26.802Z,4.27
2017-10-14T15:42:54.370Z,4.87
2017-10-14T15:45:22.033Z,5.70
2017-10-14T15:47:49.642Z,4.40
2017-10-14T15:50:17.229Z,5.50
2017-10-14T15:52:44.832Z,4.60
2017-10-14T15:55:12.394Z,6.90
2017-10-14T15:57:40.714Z,6.00
2017-10-14T16:00:08.313Z,5.60
2017-10-14T16:02:35.878Z,4.90
2017-10-14T16:05:03.465Z,3.90
2017-10-14T16:07:31.793Z,4.07
2017-10-14T16:09:59.330Z,4.50
2017-10-14T16:12:26.914Z,4.23
2017-10-14T16:14:54.455Z,4.67
2017-10-14T16:17:22.306Z,3.70
2017-10-14T16:19:49.843Z,3.90
2017-10-14T16:22:18.167Z,4.10
2017-10-14T16:24:45.829Z,4.40
2017-10-14T16:27:13.376Z,3.73
2017-10-14T16:29:41.021Z,5.67
2017-10-14T16:32:08.565Z,4.90
2017-10-14T16:34:36.874Z,4.17
2017-10-14T16:37:04.470Z,4.40
2017-10-14T16:39:32.081Z,4.70
2017-10-14T16:41:59.718Z,4.50
2017-10-14T16:44:27.285Z,4.57
2017-10-14T16:46:54.853Z,4.87
2017-10-14T16:49:22.523Z,5.50
2017-10-14T16:51:50.078Z,6.17
2017-10-14T16:54:18.097Z,8.10
2017-10-14T16:56:45.679Z,9.10
2017-10-14T16:59:13.243Z,7.70
2017-10-14T17:01:41.614Z,7.10
2017-10-14T17:04:09.178Z,4.97
2017-10-14T17:06:36.783Z,6.83
2017-10-14T17:09:04.332Z,7.77
2017-10-14T17:11:31.880Z,7.33
2017-10-14T17:13:59.481Z,6.70
2017-10-14T17:16:27.047Z,8.03
2017-10-14T17:18:54.646Z,6.87
2017-10-14T17:21:22.198Z,7.13
2017-10-14T17:23:50.534Z,8.10
2017-10-14T17:26:18.134Z,9.33
2017-10-14T17:28:46.453Z,8.70
2017-10-14T17:31:14.311Z,9.17
2017-10-14T17:33:41.903Z,8.63
2017-10-14T17:36:09.490Z,9.53
2017-10-14T17:38:37.098Z,9.07
2017-10-14T17:41:04.658Z,9.97
2017-10-14T17:43:32.314Z,9.43
2017-10-14T17:45:59.869Z,10.77
2017-10-14T17:48:27.432Z,13.23
2017-10-14T17:50:55.017Z,9.60
2017-10-14T17:53:22.596Z,9.63
2017-10-14T17:55:50.649Z,8.60
2017-10-14T17:58:18.210Z,8.20
2017-10-14T18:00:45.778Z,8.93
2017-10-14T18:03:13.454Z,8.60
2017-10-14T18:05:41.005Z,9.40
2017-10-14T18:08:08.598Z,9.00
2017-10-14T18:10:36.914Z,10.50
2017-10-14T18:13:04.471Z,11.23
2017-10-14T18:15:32.099Z,10.70
2017-10-14T18:17:59.659Z,11.53
2017-10-14T18:20:28.034Z,12.73
2017-10-14T18:22:56.367Z,12.77
2017-10-14T18:25:23.930Z,12.23
2017-10-14T18:27:51.525Z,14.03
2017-10-14T18:30:19.914Z,12.07
2017-10-14T18:32:48.282Z,11.20
2017-10-14T18:35:16.611Z,12.73
2017-10-14T18:37:44.170Z,13.37
2017-10-14T18:40:12.684Z,11.47
2017-10-14T18:42:40.265Z,11.57
2017-10-14T18:45:07.902Z,10.57
2017-10-14T18:47:35.475Z,12.50
2017-10-14T18:50:03.858Z,11.80
2017-10-14T18:52:31.469Z,11.27
2017-10-14T18:54:59.041Z,11.17
2017-10-14T18:57:26.917Z,12.10
2017-10-14T18:59:55.265Z,13.97
2017-10-14T19:02:22.825Z,13.33
2017-10-14T19:04:50.449Z,13.90
2017-10-14T19:07:18.006Z,12.73
2017-10-14T19:09:46.370Z,14.80
2017-10-14T19:12:13.927Z,16.93
2017-10-14T19:14:41.506Z,16.73
2017-10-14T19:17:09.113Z,17.50
2017-10-14T19:19:36.664Z,16.73
2017-10-14T19:22:04.571Z,14.67
2017-10-14T19:24:32.135Z,14.57
2017-10-14T19:26:59.697Z,15.60
2017-10-14T19:29:27.431Z,16.70
2017-10-14T19:31:55.010Z,17.33
2017-10-14T19:34:22.617Z,19.07
2017-10-14T19:36:50.242Z,19.67
2017-10-14T19:39:17.817Z,18.73
2017-10-14T19:41:46.201Z,19.07
2017-10-14T19:44:13.767Z,16.30
2017-10-14T19:46:41.491Z,16.10
2017-10-14T19:49:09.055Z,17.77
2017-10-14T19:51:36.590Z,18.27
2017-10-14T19:54:04.176Z,18.90
2017-10-14T19:56:31.747Z,20.97
2017-10-14T19:58:59.682Z,19.73
2017-10-14T20:01:27.244Z,26.23
2017-10-14T20:03:54.814Z,27.47
2017-10-14T20:06:22.430Z,24.63
2017-10-14T20:08:49.996Z,22.80
2017-10-14T20:11:17.593Z,23.77
2017-10-14T20:13:45.166Z,22.57
2017-10-14T20:16:12.732Z,25.07
2017-10-14T20:18:41.133Z,22.17
2017-10-14T20:21:08.710Z,26.00
2017-10-14T20:23:36.350Z,24.70
2017-10-14T20:26:03.930Z,24.57
2017-10-14T20:28:31.511Z,23.57
2017-10-14T20:30:59.130Z,24.37
2017-10-14T20:33:26.716Z,23.00
2017-10-14T20:35:54.310Z,21.20
2017-10-14T20:38:21.854Z,23.77
2017-10-14T20:40:49.396Z,23.67
2017-10-14T20:43:16.998Z,26.37
2017-10-14T20:45:44.630Z,23.87
2017-10-14T20:48:12.226Z,23.33
2017-10-14T20:50:39.785Z,22.80
2017-10-14T20:53:07.373Z,22.23
2017-10-14T20:55:35.041Z,24.67
2017-10-14T20:58:02.640Z,23.10
2017-10-14T21:00:30.609Z,21.70
2017-10-14T21:02:58.167Z,23.13
2017-10-14T21:05:25.791Z,19.57
2017-10-14T21:07:53.414Z,19.30
2017-10-14T21:10:20.969Z,18.23
2017-10-14T21:12:48.570Z,17.23
2017-10-14T21:15:16.115Z,18.60
2017-10-14T21:17:43.661Z,21.73
2017-10-14T21:20:11.388Z,18.27
2017-10-14T21:22:38.930Z,19.33
2017-10-14T21:25:06.541Z,19.40
2017-10-14T21:27:34.090Z,20.27
2017-10-14T21:30:01.645Z,18.43
2017-10-14T21:32:29.267Z,18.93
2017-10-14T21:34:56.816Z,19.40
2017-10-14T21:37:24.409Z,17.50
2017-10-14T21:39:51.972Z,18.90
2017-10-14T21:42:19.550Z,20.03
2017-10-14T21:44:47.155Z,19.00
2017-10-14T21:47:14.746Z,19.33
2017-10-14T21:49:42.361Z,20.07
2017-10-14T21:52:09.906Z,19.87
2017-10-14T21:54:38.240Z,18.17
2017-10-14T21:57:05.898Z,16.57
2017-10-14T21:59:33.518Z,17.77
2017-10-14T22:02:01.920Z,18.47
2017-10-14T22:04:29.473Z,16.10
2017-10-14T22:06:57.039Z,16.77
2017-10-14T22:09:24.739Z,16.30
2017-10-14T22:11:52.306Z,15.70
2017-10-14T22:14:19.917Z,16.80
2017-10-14T22:16:47.479Z,14.30
2017-10-14T22:19:15.053Z,15.43
2017-10-14T22:21:42.701Z,16.50
2017-10-14T22:24:10.245Z,15.50
2017-10-14T22:26:37.835Z,15.30
2017-10-14T22:29:05.454Z,13.93
2017-10-14T22:31:33.787Z,14.43
2017-10-14T22:34:01.407Z,12.57
2017-10-14T22:36:29.272Z,13.90
2017-10-14T22:38:56.920Z,16.43
2017-10-14T22:41:25.230Z,13.40
2017-10-14T22:43:52.878Z,12.37
2017-10-14T22:46:20.466Z,13.67
2017-10-14T22:48:48.030Z,14.37
2017-10-14T22:51:15.631Z,13.03
2017-10-14T22:53:43.958Z,13.43
2017-10-14T22:56:11.546Z,12.93
2017-10-14T22:58:39.154Z,12.40
2017-10-14T23:01:06.701Z,12.80
2017-10-14T23:03:34.299Z,10.03
2017-10-14T23:06:01.873Z,13.17
2017-10-14T23:08:29.451Z,10.10
2017-10-14T23:10:57.913Z,10.20
2017-10-14T23:13:26.261Z,9.67
2017-10-14T23:15:53.841Z,9.20
2017-10-14T23:18:21.393Z,9.77
2017-10-14T23:20:48.963Z,9.60
2017-10-14T23:23:16.567Z,10.17
2017-10-14T23:25:44.155Z,9.03
2017-10-14T23:28:12.142Z,8.40
2017-10-14T23:30:39.712Z,8.47
2017-10-14T23:33:07.290Z,9.90
2017-10-14T23:35:35.837Z,10.67
2017-10-14T23:38:03.409Z,9.37
2017-10-14T23:40:31.038Z,10.60
2017-10-14T23:42:58.600Z,9.23
2017-10-14T23:45:26.161Z,9.20
2017-10-14T23:47:53.745Z,8.43
2017-10-14T23:50:21.298Z,8.87
2017-10-14T23:52:48.906Z,8.83
2017-10-14T23:55:16.446Z,10.47
2017-10-14T23:57:44.766Z,9.80
